Datum - ZeitTemperaturTaupunktFeuchteSolaruvi Wind aus Richtung WindböenLuftdruck (QFF)RegenRegenstärkeTrend
02.06.2020 - 00.00Uhr16.6 °C8.3 °C58 %0.0 W/m²0.0 uvi1.5 km/hNordosten7.9 km/h1016.1 hPa0.0 mm0.0 mm/hwechselhaft
02.06.2020 - 00.05Uhr16.8 °C8.2 °C57 %0.0 W/m²0.0 uvi0.0 km/hSüdosten1.4 km/h1016.1 hPa0.0 mm0.0 mm/hwechselhaft
02.06.2020 - 00.10Uhr17.0 °C8.2 °C56 %0.0 W/m²0.0 uvi4.0 km/hOsten14.4 km/h1016.1 hPa0.0 mm0.0 mm/hwechselhaft
02.06.2020 - 00.15Uhr17.1 °C8.2 °C56 %0.0 W/m²0.0 uvi0.5 km/hOst-NO6.5 km/h1016.1 hPa0.0 mm0.0 mm/hwechselhaft
02.06.2020 - 00.20Uhr17.1 °C8.0 °C55 %0.0 W/m²0.0 uvi1.5 km/hNordosten7.9 km/h1016.1 hPa0.0 mm0.0 mm/hwechselhaft
02.06.2020 - 00.25Uhr17.2 °C8.1 °C55 %0.0 W/m²0.0 uvi4.7 km/hNordosten11.2 km/h1016.1 hPa0.0 mm0.0 mm/hwechselhaft
02.06.2020 - 00.30Uhr17.3 °C8.1 °C55 %0.0 W/m²0.0 uvi4.2 km/hNordosten9.7 km/h1016.0 hPa0.0 mm0.0 mm/hwechselhaft
02.06.2020 - 00.35Uhr17.3 °C8.2 °C55 %0.0 W/m²0.0 uvi3.8 km/hNordosten9.7 km/h1016.0 hPa0.0 mm0.0 mm/hwechselhaft
02.06.2020 - 00.40Uhr17.3 °C8.3 °C56 %0.0 W/m²0.0 uvi0.2 km/hOst-SO6.5 km/h1015.9 hPa0.0 mm0.0 mm/hwechselhaft
02.06.2020 - 00.45Uhr17.0 °C8.3 °C57 %0.0 W/m²0.0 uvi0.3 km/hNordosten3.2 km/h1015.9 hPa0.0 mm0.0 mm/hwechselhaft
02.06.2020 - 00.50Uhr16.7 °C8.3 °C58 %0.0 W/m²0.0 uvi0.0 km/hNordosten0.0 km/h1015.9 hPa0.0 mm0.0 mm/hwechselhaft
02.06.2020 - 00.55Uhr16.6 °C8.6 °C59 %0.0 W/m²0.0 uvi0.0 km/hNordosten1.4 km/h1015.8 hPa0.0 mm0.0 mm/hwechselhaft
02.06.2020 - 01.00Uhr16.6 °C8.4 °C58 %0.0 W/m²0.0 uvi2.2 km/hNordosten6.5 km/h1015.8 hPa0.0 mm0.0 mm/hwechselhaft
02.06.2020 - 01.05Uhr16.6 °C8.5 °C59 %0.0 W/m²0.0 uvi1.8 km/hNordosten6.5 km/h1015.8 hPa0.0 mm0.0 mm/hwechselhaft
02.06.2020 - 01.10Uhr16.7 °C8.5 °C59 %0.0 W/m²0.0 uvi0.9 km/hNordosten6.5 km/h1015.8 hPa0.0 mm0.0 mm/hwechselhaft
02.06.2020 - 01.15Uhr16.7 °C8.6 °C59 %0.0 W/m²0.0 uvi0.4 km/hNordosten4.7 km/h1015.8 hPa0.0 mm0.0 mm/hwechselhaft
02.06.2020 - 01.20Uhr16.6 °C8.6 °C59 %0.0 W/m²0.0 uvi1.3 km/hNordosten4.7 km/h1015.9 hPa0.0 mm0.0 mm/hwechselhaft
02.06.2020 - 01.25Uhr16.4 °C8.5 °C59 %0.0 W/m²0.0 uvi1.8 km/hNordosten7.9 km/h1015.9 hPa0.0 mm0.0 mm/hwechselhaft
02.06.2020 - 01.30Uhr16.3 °C8.7 °C61 %0.0 W/m²0.0 uvi2.4 km/hNordosten6.5 km/h1015.9 hPa0.0 mm0.0 mm/hwechselhaft
02.06.2020 - 01.35Uhr16.2 °C8.7 °C61 %0.0 W/m²0.0 uvi0.3 km/hNordosten4.7 km/h1015.9 hPa0.0 mm0.0 mm/hwechselhaft
02.06.2020 - 01.40Uhr16.2 °C8.8 °C62 %0.0 W/m²0.0 uvi0.9 km/hNordosten6.5 km/h1015.8 hPa0.0 mm0.0 mm/hwechselhaft
02.06.2020 - 01.45Uhr16.1 °C8.8 °C62 %0.0 W/m²0.0 uvi0.0 km/hNordosten0.0 km/h1015.8 hPa0.0 mm0.0 mm/hwechselhaft
02.06.2020 - 01.50Uhr15.9 °C8.9 °C63 %0.0 W/m²0.0 uvi0.0 km/hNordosten0.0 km/h1015.8 hPa0.0 mm0.0 mm/hwechselhaft
02.06.2020 - 01.55Uhr15.7 °C8.9 °C64 %0.0 W/m²0.0 uvi0.0 km/hNordosten0.0 km/h1015.8 hPa0.0 mm0.0 mm/hwechselhaft
02.06.2020 - 02.00Uhr15.6 °C8.9 °C64 %0.0 W/m²0.0 uvi0.0 km/hNordosten0.0 km/h1015.8 hPa0.0 mm0.0 mm/hwechselhaft
02.06.2020 - 02.05Uhr15.4 °C8.9 °C65 %0.0 W/m²0.0 uvi0.0 km/hNordosten0.0 km/h1015.7 hPa0.0 mm0.0 mm/hwechselhaft
02.06.2020 - 02.10Uhr15.2 °C8.8 °C66 %0.0 W/m²0.0 uvi0.0 km/hNordosten0.0 km/h1015.7 hPa0.0 mm0.0 mm/hwechselhaft
02.06.2020 - 02.15Uhr14.8 °C8.3 °C65 %0.0 W/m²0.0 uvi0.0 km/hNordosten0.0 km/h1015.7 hPa0.0 mm0.0 mm/hwechselhaft
02.06.2020 - 02.20Uhr14.5 °C8.1 °C66 %0.0 W/m²0.0 uvi0.0 km/hNordosten0.0 km/h1015.7 hPa0.0 mm0.0 mm/hwechselhaft
02.06.2020 - 02.25Uhr14.3 °C8.0 °C66 %0.0 W/m²0.0 uvi0.0 km/hNordosten0.0 km/h1015.7 hPa0.0 mm0.0 mm/hwechselhaft
02.06.2020 - 02.30Uhr14.2 °C8.1 °C67 %0.0 W/m²0.0 uvi0.0 km/hNordosten0.0 km/h1015.7 hPa0.0 mm0.0 mm/hwechselhaft
02.06.2020 - 02.35Uhr14.1 °C8.2 °C67 %0.0 W/m²0.0 uvi0.0 km/hNordosten0.0 km/h1015.7 hPa0.0 mm0.0 mm/hwechselhaft
02.06.2020 - 02.40Uhr14.0 °C8.2 °C68 %0.0 W/m²0.0 uvi0.0 km/hNordosten0.0 km/h1015.7 hPa0.0 mm0.0 mm/hwechselhaft
02.06.2020 - 02.45Uhr13.9 °C8.3 °C69 %0.0 W/m²0.0 uvi0.0 km/hNordosten0.0 km/h1015.6 hPa0.0 mm0.0 mm/hwechselhaft
02.06.2020 - 02.50Uhr13.8 °C8.7 °C71 %0.0 W/m²0.0 uvi0.0 km/hNordosten0.0 km/h1015.6 hPa0.0 mm0.0 mm/hwechselhaft
02.06.2020 - 02.55Uhr13.7 °C8.7 °C72 %0.0 W/m²0.0 uvi0.0 km/hNordosten0.0 km/h1015.6 hPa0.0 mm0.0 mm/hwechselhaft
02.06.2020 - 03.00Uhr13.6 °C8.7 °C72 %0.0 W/m²0.0 uvi0.0 km/hNordosten0.0 km/h1015.6 hPa0.0 mm0.0 mm/hwechselhaft
02.06.2020 - 03.05Uhr13.4 °C8.8 °C73 %0.0 W/m²0.0 uvi0.0 km/hNordosten0.0 km/h1015.6 hPa0.0 mm0.0 mm/hwechselhaft
02.06.2020 - 03.10Uhr13.2 °C8.8 °C74 %0.0 W/m²0.0 uvi0.0 km/hNordosten0.0 km/h1015.5 hPa0.0 mm0.0 mm/hwechselhaft
02.06.2020 - 03.15Uhr13.1 °C8.7 °C75 %0.0 W/m²0.0 uvi0.0 km/hNordosten0.0 km/h1015.6 hPa0.0 mm0.0 mm/hwechselhaft
02.06.2020 - 03.20Uhr13.0 °C8.8 °C76 %0.0 W/m²0.0 uvi0.0 km/hNordosten0.0 km/h1015.5 hPa0.0 mm0.0 mm/hwechselhaft
02.06.2020 - 03.25Uhr12.9 °C8.8 °C76 %0.0 W/m²0.0 uvi0.0 km/hNordosten0.0 km/h1015.4 hPa0.0 mm0.0 mm/hwechselhaft
02.06.2020 - 03.30Uhr12.8 °C8.7 °C76 %0.0 W/m²0.0 uvi0.0 km/hNordosten0.0 km/h1015.4 hPa0.0 mm0.0 mm/hwechselhaft
02.06.2020 - 03.35Uhr12.7 °C8.6 °C76 %0.0 W/m²0.0 uvi0.0 km/hNordosten0.0 km/h1015.4 hPa0.0 mm0.0 mm/hwechselhaft
02.06.2020 - 03.40Uhr12.6 °C8.4 °C76 %0.0 W/m²0.0 uvi0.0 km/hNordosten0.0 km/h1015.4 hPa0.0 mm0.0 mm/hwechselhaft
02.06.2020 - 03.45Uhr12.6 °C8.5 °C76 %0.0 W/m²0.0 uvi0.0 km/hNordosten0.0 km/h1015.4 hPa0.0 mm0.0 mm/hwechselhaft
02.06.2020 - 03.50Uhr12.6 °C8.5 °C76 %0.0 W/m²0.0 uvi0.0 km/hNordosten0.0 km/h1015.4 hPa0.0 mm0.0 mm/hwechselhaft
02.06.2020 - 03.55Uhr12.4 °C8.3 °C76 %0.0 W/m²0.0 uvi0.0 km/hNordosten0.0 km/h1015.4 hPa0.0 mm0.0 mm/hwechselhaft
02.06.2020 - 04.00Uhr12.4 °C8.3 °C76 %0.0 W/m²0.0 uvi0.0 km/hNordosten0.0 km/h1015.3 hPa0.0 mm0.0 mm/hwechselhaft
02.06.2020 - 04.05Uhr12.3 °C8.4 °C77 %0.0 W/m²0.0 uvi0.0 km/hNordosten0.0 km/h1015.3 hPa0.0 mm0.0 mm/hwechselhaft
02.06.2020 - 04.10Uhr12.2 °C8.3 °C77 %0.0 W/m²0.0 uvi0.0 km/hNordosten0.0 km/h1015.4 hPa0.0 mm0.0 mm/hwechselhaft
02.06.2020 - 04.15Uhr12.1 °C8.2 °C77 %0.0 W/m²0.0 uvi0.0 km/hNordosten0.0 km/h1015.3 hPa0.0 mm0.0 mm/hwechselhaft
02.06.2020 - 04.20Uhr12.0 °C8.1 °C77 %0.0 W/m²0.0 uvi0.0 km/hNordosten0.0 km/h1015.3 hPa0.0 mm0.0 mm/hwechselhaft
02.06.2020 - 04.25Uhr11.9 °C8.2 °C78 %0.0 W/m²0.0 uvi0.0 km/hNordosten0.0 km/h1015.4 hPa0.0 mm0.0 mm/hwechselhaft
02.06.2020 - 04.30Uhr11.9 °C8.2 °C78 %0.0 W/m²0.0 uvi0.0 km/hNordosten0.0 km/h1015.4 hPa0.0 mm0.0 mm/hwechselhaft
02.06.2020 - 04.35Uhr11.9 °C8.2 °C78 %0.0 W/m²0.0 uvi0.0 km/hNordosten0.0 km/h1015.4 hPa0.0 mm0.0 mm/hwechselhaft
02.06.2020 - 04.40Uhr11.9 °C8.4 °C79 %0.0 W/m²0.0 uvi0.0 km/hNordosten0.0 km/h1015.4 hPa0.0 mm0.0 mm/hwechselhaft
02.06.2020 - 04.45Uhr11.8 °C8.3 °C79 %0.0 W/m²0.0 uvi0.0 km/hNordosten0.0 km/h1015.5 hPa0.0 mm0.0 mm/hwechselhaft
02.06.2020 - 04.50Uhr11.7 °C8.2 °C79 %0.0 W/m²0.0 uvi0.0 km/hNordosten0.0 km/h1015.5 hPa0.0 mm0.0 mm/hwechselhaft
02.06.2020 - 04.55Uhr11.6 °C8.1 °C79 %0.0 W/m²0.0 uvi0.0 km/hNordosten0.0 km/h1015.5 hPa0.0 mm0.0 mm/hwechselhaft
02.06.2020 - 05.00Uhr11.6 °C8.1 °C79 %0.0 W/m²0.0 uvi0.0 km/hNordosten0.0 km/h1015.5 hPa0.0 mm0.0 mm/hwechselhaft
02.06.2020 - 05.05Uhr11.5 °C8.1 °C79 %0.0 W/m²0.0 uvi0.0 km/hNordosten0.0 km/h1015.5 hPa0.0 mm0.0 mm/hwechselhaft
02.06.2020 - 05.10Uhr11.5 °C8.0 °C79 %0.0 W/m²0.0 uvi0.0 km/hNordosten0.0 km/h1015.5 hPa0.0 mm0.0 mm/hwechselhaft
02.06.2020 - 05.15Uhr11.4 °C7.9 °C79 %0.0 W/m²0.0 uvi0.0 km/hNordosten0.0 km/h1015.5 hPa0.0 mm0.0 mm/hwechselhaft
02.06.2020 - 05.20Uhr11.4 °C7.9 °C79 %0.0 W/m²0.0 uvi0.0 km/hNordosten0.0 km/h1015.5 hPa0.0 mm0.0 mm/hwechselhaft
02.06.2020 - 05.25Uhr11.3 °C7.8 °C79 %5.0 W/m²0.0 uvi0.0 km/hNordosten0.0 km/h1015.6 hPa0.0 mm0.0 mm/hwechselhaft
02.06.2020 - 05.30Uhr11.3 °C7.8 °C79 %7.0 W/m²0.0 uvi0.0 km/hNordosten0.0 km/h1015.7 hPa0.0 mm0.0 mm/hwechselhaft
02.06.2020 - 05.35Uhr11.2 °C7.9 °C80 %9.0 W/m²0.0 uvi0.0 km/hNordosten0.0 km/h1015.7 hPa0.0 mm0.0 mm/hwechselhaft
02.06.2020 - 05.40Uhr11.2 °C7.9 °C80 %11.0 W/m²0.0 uvi0.0 km/hNordosten0.0 km/h1015.7 hPa0.0 mm0.0 mm/hwechselhaft
02.06.2020 - 05.45Uhr11.2 °C7.8 °C80 %14.0 W/m²0.0 uvi0.0 km/hNordosten0.0 km/h1015.8 hPa0.0 mm0.0 mm/hwechselhaft
02.06.2020 - 05.50Uhr11.1 °C7.8 °C80 %16.0 W/m²0.0 uvi0.0 km/hNordosten0.0 km/h1015.8 hPa0.0 mm0.0 mm/hwechselhaft
02.06.2020 - 05.55Uhr11.0 °C7.7 °C80 %18.0 W/m²0.0 uvi0.0 km/hNordosten0.0 km/h1015.9 hPa0.0 mm0.0 mm/hwechselhaft
02.06.2020 - 06.00Uhr11.0 °C7.7 °C80 %21.0 W/m²0.0 uvi0.0 km/hNordosten0.0 km/h1015.9 hPa0.0 mm0.0 mm/hwechselhaft
02.06.2020 - 06.05Uhr11.1 °C7.8 °C80 %25.0 W/m²0.0 uvi0.0 km/hNordosten0.0 km/h1015.9 hPa0.0 mm0.0 mm/hwechselhaft
02.06.2020 - 06.10Uhr11.1 °C7.8 °C80 %33.0 W/m²0.0 uvi0.0 km/hNordosten0.0 km/h1015.9 hPa0.0 mm0.0 mm/hwechselhaft
02.06.2020 - 06.15Uhr11.3 °C8.0 °C80 %42.0 W/m²0.0 uvi0.0 km/hNorden0.0 km/h1016.0 hPa0.0 mm0.0 mm/hwechselhaft
02.06.2020 - 06.20Uhr11.6 °C8.4 °C81 %51.0 W/m²0.0 uvi0.0 km/hNorden0.0 km/h1016.0 hPa0.0 mm0.0 mm/hwechselhaft
02.06.2020 - 06.25Uhr12.0 °C8.7 °C80 %62.0 W/m²0.0 uvi0.0 km/hNorden0.0 km/h1016.0 hPa0.0 mm0.0 mm/hwechselhaft
02.06.2020 - 06.30Uhr12.3 °C9.0 °C81 %72.0 W/m²0.0 uvi0.0 km/hNorden0.0 km/h1016.1 hPa0.0 mm0.0 mm/hwechselhaft
02.06.2020 - 06.35Uhr12.6 °C9.2 °C80 %86.0 W/m²0.0 uvi0.0 km/hNorden0.0 km/h1016.1 hPa0.0 mm0.0 mm/hwechselhaft
02.06.2020 - 06.40Uhr13.0 °C9.5 °C79 %98.0 W/m²0.0 uvi0.0 km/hNorden0.0 km/h1016.1 hPa0.0 mm0.0 mm/hwechselhaft
02.06.2020 - 06.45Uhr13.3 °C9.9 °C80 %113.0 W/m²0.0 uvi0.0 km/hNorden0.0 km/h1016.1 hPa0.0 mm0.0 mm/hwechselhaft
02.06.2020 - 06.50Uhr13.6 °C10.1 °C79 %127.0 W/m²0.0 uvi0.0 km/hNorden0.0 km/h1016.1 hPa0.0 mm0.0 mm/hwechselhaft
02.06.2020 - 06.55Uhr13.8 °C10.1 °C78 %144.0 W/m²0.0 uvi0.0 km/hNorden0.0 km/h1016.0 hPa0.0 mm0.0 mm/hwechselhaft
02.06.2020 - 07.00Uhr14.0 °C10.1 °C78 %160.0 W/m²0.0 uvi0.0 km/hNorden0.0 km/h1016.0 hPa0.0 mm0.0 mm/hwechselhaft
02.06.2020 - 07.05Uhr14.3 °C10.3 °C77 %176.0 W/m²0.0 uvi0.0 km/hNorden0.0 km/h1016.1 hPa0.0 mm0.0 mm/hwechselhaft
02.06.2020 - 07.10Uhr14.5 °C10.3 °C76 %192.0 W/m²0.0 uvi0.0 km/hNorden0.0 km/h1016.1 hPa0.0 mm0.0 mm/hwechselhaft
02.06.2020 - 07.15Uhr14.7 °C10.8 °C77 %209.0 W/m²0.0 uvi0.0 km/hNorden0.0 km/h1016.1 hPa0.0 mm0.0 mm/hwechselhaft
02.06.2020 - 07.20Uhr14.8 °C10.8 °C77 %225.0 W/m²0.4 uvi0.0 km/hNorden0.0 km/h1016.1 hPa0.0 mm0.0 mm/hwechselhaft
02.06.2020 - 07.25Uhr14.9 °C10.7 °C76 %239.0 W/m²0.5 uvi0.0 km/hNorden0.0 km/h1016.1 hPa0.0 mm0.0 mm/hwechselhaft
02.06.2020 - 07.30Uhr15.0 °C10.6 °C75 %253.0 W/m²0.6 uvi0.0 km/hNorden0.0 km/h1016.0 hPa0.0 mm0.0 mm/hwechselhaft
02.06.2020 - 07.35Uhr15.2 °C10.6 °C74 %267.0 W/m²0.6 uvi0.0 km/hNorden0.0 km/h1016.0 hPa0.0 mm0.0 mm/hwechselhaft
02.06.2020 - 07.40Uhr15.3 °C10.3 °C72 %281.0 W/m²0.7 uvi0.0 km/hNorden0.0 km/h1016.0 hPa0.0 mm0.0 mm/hwechselhaft
02.06.2020 - 07.45Uhr15.3 °C10.3 °C72 %297.0 W/m²0.7 uvi0.0 km/hNorden0.0 km/h1016.0 hPa0.0 mm0.0 mm/hwechselhaft
02.06.2020 - 07.50Uhr15.3 °C10.3 °C72 %311.0 W/m²0.8 uvi0.0 km/hNorden0.0 km/h1016.1 hPa0.0 mm0.0 mm/hwechselhaft
02.06.2020 - 07.55Uhr15.6 °C10.3 °C71 %325.0 W/m²0.8 uvi0.0 km/hNorden0.0 km/h1016.1 hPa0.0 mm0.0 mm/hwechselhaft
02.06.2020 - 08.00Uhr15.9 °C10.4 °C70 %339.0 W/m²0.9 uvi0.0 km/hNorden0.0 km/h1016.1 hPa0.0 mm0.0 mm/hwechselhaft
02.06.2020 - 08.05Uhr16.1 °C10.7 °C70 %355.0 W/m²1.0 uvi0.0 km/hNorden0.0 km/h1016.1 hPa0.0 mm0.0 mm/hwechselhaft
02.06.2020 - 08.10Uhr16.2 °C10.5 °C69 %371.0 W/m²1.0 uvi0.0 km/hNorden0.0 km/h1016.1 hPa0.0 mm0.0 mm/hwechselhaft
02.06.2020 - 08.15Uhr16.4 °C10.5 °C68 %383.0 W/m²1.1 uvi0.4 km/hSüdwesten6.5 km/h1016.2 hPa0.0 mm0.0 mm/hwechselhaft
02.06.2020 - 08.20Uhr16.7 °C10.5 °C67 %397.0 W/m²1.2 uvi0.0 km/hSüdwesten0.0 km/h1016.1 hPa0.0 mm0.0 mm/hwechselhaft
02.06.2020 - 08.25Uhr16.8 °C10.5 °C67 %413.0 W/m²1.3 uvi0.0 km/hSüden0.0 km/h1016.1 hPa0.0 mm0.0 mm/hwechselhaft
02.06.2020 - 08.30Uhr16.9 °C10.8 °C67 %425.0 W/m²1.3 uvi0.0 km/hSüden0.0 km/h1016.1 hPa0.0 mm0.0 mm/hwechselhaft
02.06.2020 - 08.35Uhr17.0 °C10.9 °C67 %439.0 W/m²1.4 uvi0.0 km/hSüden0.0 km/h1016.3 hPa0.0 mm0.0 mm/hwechselhaft
02.06.2020 - 08.40Uhr17.0 °C10.7 °C66 %452.0 W/m²1.5 uvi0.0 km/hSüd-SW0.0 km/h1016.3 hPa0.0 mm0.0 mm/hwechselhaft
02.06.2020 - 08.45Uhr16.9 °C10.7 °C67 %468.0 W/m²1.6 uvi0.0 km/hSüd-SW0.0 km/h1016.3 hPa0.0 mm0.0 mm/hwechselhaft
02.06.2020 - 08.50Uhr17.1 °C11.0 °C67 %483.0 W/m²1.7 uvi0.0 km/hSüd-SW0.0 km/h1016.2 hPa0.0 mm0.0 mm/hwechselhaft
02.06.2020 - 08.55Uhr17.2 °C10.7 °C65 %497.0 W/m²1.8 uvi0.0 km/hSüd-SO0.0 km/h1016.2 hPa0.0 mm0.0 mm/hwechselhaft
02.06.2020 - 09.00Uhr17.3 °C10.7 °C65 %508.0 W/m²1.9 uvi0.0 km/hSüdosten0.0 km/h1016.2 hPa0.0 mm0.0 mm/hwechselhaft
02.06.2020 - 09.05Uhr17.4 °C10.9 °C65 %520.0 W/m²2.0 uvi0.0 km/hSüdosten1.4 km/h1016.3 hPa0.0 mm0.0 mm/hwechselhaft
02.06.2020 - 09.10Uhr17.6 °C10.9 °C65 %536.0 W/m²2.1 uvi0.0 km/hSüdosten0.0 km/h1016.3 hPa0.0 mm0.0 mm/hwechselhaft
02.06.2020 - 09.15Uhr17.8 °C10.9 °C64 %548.0 W/m²2.2 uvi0.0 km/hSüdosten1.4 km/h1016.2 hPa0.0 mm0.0 mm/hwechselhaft
02.06.2020 - 09.20Uhr18.1 °C11.1 °C64 %564.0 W/m²2.4 uvi0.0 km/hSüdosten0.0 km/h1016.2 hPa0.0 mm0.0 mm/hwechselhaft
02.06.2020 - 09.25Uhr18.5 °C11.6 °C64 %577.0 W/m²2.5 uvi0.0 km/hSüdosten1.4 km/h1016.1 hPa0.0 mm0.0 mm/hwechselhaft
02.06.2020 - 09.30Uhr18.7 °C11.5 °C63 %591.0 W/m²2.6 uvi0.7 km/hSüdwesten6.5 km/h1016.1 hPa0.0 mm0.0 mm/hwechselhaft
02.06.2020 - 09.35Uhr18.5 °C11.3 °C63 %605.0 W/m²2.7 uvi0.8 km/hSüd-SO6.5 km/h1016.1 hPa0.0 mm0.0 mm/hwechselhaft
02.06.2020 - 09.40Uhr18.5 °C10.8 °C61 %615.0 W/m²2.8 uvi0.6 km/hSüd-SW6.5 km/h1016.0 hPa0.0 mm0.0 mm/hwechselhaft
02.06.2020 - 09.45Uhr18.3 °C11.1 °C63 %626.0 W/m²3.0 uvi0.0 km/hSüdwesten1.4 km/h1016.0 hPa0.0 mm0.0 mm/hwechselhaft
02.06.2020 - 09.50Uhr18.1 °C11.0 °C63 %638.0 W/m²3.1 uvi0.0 km/hSüdwesten0.0 km/h1016.0 hPa0.0 mm0.0 mm/hwechselhaft
02.06.2020 - 09.55Uhr18.1 °C11.1 °C63 %654.0 W/m²3.2 uvi0.0 km/hSüdwesten0.0 km/h1016.0 hPa0.0 mm0.0 mm/hwechselhaft
02.06.2020 - 10.00Uhr18.3 °C11.0 °C62 %664.0 W/m²3.3 uvi2.1 km/hWest-NW6.5 km/h1016.0 hPa0.0 mm0.0 mm/hwechselhaft
02.06.2020 - 10.05Uhr18.2 °C10.9 °C63 %675.0 W/m²3.5 uvi0.0 km/hWest-NW1.4 km/h1016.0 hPa0.0 mm0.0 mm/hwechselhaft
02.06.2020 - 10.10Uhr18.4 °C11.1 °C62 %686.0 W/m²3.6 uvi2.4 km/hOst-SO7.9 km/h1015.9 hPa0.0 mm0.0 mm/hwechselhaft
02.06.2020 - 10.15Uhr18.8 °C11.4 °C62 %694.0 W/m²3.8 uvi0.0 km/hSüden1.4 km/h1015.9 hPa0.0 mm0.0 mm/hwechselhaft
02.06.2020 - 10.20Uhr19.2 °C12.5 °C65 %707.0 W/m²3.9 uvi0.6 km/hWest-NW6.5 km/h1015.8 hPa0.0 mm0.0 mm/hwechselhaft
02.06.2020 - 10.25Uhr19.1 °C12.0 °C64 %717.0 W/m²4.0 uvi1.1 km/hNord-NW6.5 km/h1015.8 hPa0.0 mm0.0 mm/hwechselhaft
02.06.2020 - 10.30Uhr19.0 °C12.1 °C64 %728.0 W/m²4.1 uvi0.0 km/hWest-NW1.4 km/h1015.7 hPa0.0 mm0.0 mm/hwechselhaft
02.06.2020 - 10.35Uhr19.1 °C11.9 °C63 %738.0 W/m²4.3 uvi1.9 km/hNordosten7.9 km/h1015.7 hPa0.0 mm0.0 mm/hwechselhaft
02.06.2020 - 10.40Uhr19.4 °C11.3 °C59 %747.0 W/m²4.4 uvi2.6 km/hOst-NO7.9 km/h1015.6 hPa0.0 mm0.0 mm/hwechselhaft
02.06.2020 - 10.45Uhr19.7 °C11.4 °C59 %754.0 W/m²4.5 uvi0.0 km/hOst-NO1.4 km/h1015.6 hPa0.0 mm0.0 mm/hwechselhaft